sensor_id;sensor_type;location;lat;lon;timestamp;P1;durP1;ratioP1;P2;durP2;ratioP2
15285;SDS011;7744;52.172;10.668;2023-06-10T00:00:12;4.15;;;3.03;;
15285;SDS011;7744;52.172;10.668;2023-06-10T00:02:40;4.95;;;3.10;;
15285;SDS011;7744;52.172;10.668;2023-06-10T00:05:06;4.60;;;3.25;;
15285;SDS011;7744;52.172;10.668;2023-06-10T00:07:33;5.20;;;3.38;;
15285;SDS011;7744;52.172;10.668;2023-06-10T00:10:03;4.47;;;3.20;;
15285;SDS011;7744;52.172;10.668;2023-06-10T00:12:30;5.85;;;3.50;;
15285;SDS011;7744;52.172;10.668;2023-06-10T00:14:59;3.45;;;3.10;;
15285;SDS011;7744;52.172;10.668;2023-06-10T00:17:25;6.13;;;3.15;;
15285;SDS011;7744;52.172;10.668;2023-06-10T00:19:54;5.32;;;3.25;;
15285;SDS011;7744;52.172;10.668;2023-06-10T00:22:20;4.35;;;3.05;;
15285;SDS011;7744;52.172;10.668;2023-06-10T00:24:47;5.40;;;3.15;;
15285;SDS011;7744;52.172;10.668;2023-06-10T00:27:12;5.10;;;3.20;;
15285;SDS011;7744;52.172;10.668;2023-06-10T00:29:38;5.10;;;3.30;;
15285;SDS011;7744;52.172;10.668;2023-06-10T00:32:04;3.53;;;3.13;;
15285;SDS011;7744;52.172;10.668;2023-06-10T00:34:30;4.60;;;3.50;;
15285;SDS011;7744;52.172;10.668;2023-06-10T00:36:57;6.07;;;3.40;;
15285;SDS011;7744;52.172;10.668;2023-06-10T00:39:23;4.97;;;3.42;;
15285;SDS011;7744;52.172;10.668;2023-06-10T00:41:48;6.40;;;3.67;;
15285;SDS011;7744;52.172;10.668;2023-06-10T00:44:15;4.30;;;3.33;;
15285;SDS011;7744;52.172;10.668;2023-06-10T00:46:41;4.68;;;3.13;;
15285;SDS011;7744;52.172;10.668;2023-06-10T00:49:07;3.85;;;3.25;;
15285;SDS011;7744;52.172;10.668;2023-06-10T00:51:33;5.20;;;3.67;;
15285;SDS011;7744;52.172;10.668;2023-06-10T00:54:00;5.70;;;3.45;;
15285;SDS011;7744;52.172;10.668;2023-06-10T00:56:25;4.22;;;3.60;;
15285;SDS011;7744;52.172;10.668;2023-06-10T00:58:53;4.05;;;3.40;;
15285;SDS011;7744;52.172;10.668;2023-06-10T01:01:19;4.82;;;3.42;;
15285;SDS011;7744;52.172;10.668;2023-06-10T01:03:45;4.70;;;3.03;;
15285;SDS011;7744;52.172;10.668;2023-06-10T01:09:22;4.35;;;3.10;;
15285;SDS011;7744;52.172;10.668;2023-06-10T01:11:59;8.30;;;3.70;;
15285;SDS011;7744;52.172;10.668;2023-06-10T01:14:35;4.75;;;3.83;;
15285;SDS011;7744;52.172;10.668;2023-06-10T01:17:01;4.82;;;3.70;;
15285;SDS011;7744;52.172;10.668;2023-06-10T01:19:28;5.38;;;3.20;;
15285;SDS011;7744;52.172;10.668;2023-06-10T01:21:56;4.88;;;3.53;;
15285;SDS011;7744;52.172;10.668;2023-06-10T01:24:25;4.65;;;3.40;;
15285;SDS011;7744;52.172;10.668;2023-06-10T01:26:52;5.45;;;3.75;;
15285;SDS011;7744;52.172;10.668;2023-06-10T01:29:26;4.93;;;3.53;;
15285;SDS011;7744;52.172;10.668;2023-06-10T01:32:02;6.40;;;3.75;;
15285;SDS011;7744;52.172;10.668;2023-06-10T01:34:32;6.75;;;3.88;;
15285;SDS011;7744;52.172;10.668;2023-06-10T01:36:59;5.80;;;3.88;;
15285;SDS011;7744;52.172;10.668;2023-06-10T01:39:25;6.70;;;3.83;;
15285;SDS011;7744;52.172;10.668;2023-06-10T01:41:52;6.20;;;3.55;;
15285;SDS011;7744;52.172;10.668;2023-06-10T01:44:19;4.75;;;3.83;;
15285;SDS011;7744;52.172;10.668;2023-06-10T01:46:46;5.75;;;3.58;;
15285;SDS011;7744;52.172;10.668;2023-06-10T01:49:11;4.55;;;3.47;;
15285;SDS011;7744;52.172;10.668;2023-06-10T01:51:38;5.13;;;3.42;;
15285;SDS011;7744;52.172;10.668;2023-06-10T01:54:03;8.45;;;4.32;;
15285;SDS011;7744;52.172;10.668;2023-06-10T01:56:29;6.43;;;3.78;;
15285;SDS011;7744;52.172;10.668;2023-06-10T01:58:55;4.65;;;4.03;;
15285;SDS011;7744;52.172;10.668;2023-06-10T02:01:24;6.18;;;3.78;;
15285;SDS011;7744;52.172;10.668;2023-06-10T02:03:50;5.50;;;3.55;;
15285;SDS011;7744;52.172;10.668;2023-06-10T02:06:16;4.75;;;3.38;;
15285;SDS011;7744;52.172;10.668;2023-06-10T02:08:42;5.03;;;3.50;;
15285;SDS011;7744;52.172;10.668;2023-06-10T02:11:08;4.65;;;3.47;;
15285;SDS011;7744;52.172;10.668;2023-06-10T02:13:34;6.65;;;4.20;;
15285;SDS011;7744;52.172;10.668;2023-06-10T02:16:00;5.45;;;3.90;;
15285;SDS011;7744;52.172;10.668;2023-06-10T02:18:26;4.32;;;3.92;;
15285;SDS011;7744;52.172;10.668;2023-06-10T02:20:53;7.68;;;4.53;;
15285;SDS011;7744;52.172;10.668;2023-06-10T02:23:19;5.68;;;4.10;;
15285;SDS011;7744;52.172;10.668;2023-06-10T02:25:44;4.28;;;3.65;;
15285;SDS011;7744;52.172;10.668;2023-06-10T02:28:12;6.38;;;4.05;;
15285;SDS011;7744;52.172;10.668;2023-06-10T02:30:41;5.68;;;4.28;;
15285;SDS011;7744;52.172;10.668;2023-06-10T02:33:07;7.45;;;4.10;;
15285;SDS011;7744;52.172;10.668;2023-06-10T02:35:37;5.13;;;4.10;;
15285;SDS011;7744;52.172;10.668;2023-06-10T02:38:03;5.35;;;4.53;;
15285;SDS011;7744;52.172;10.668;2023-06-10T02:40:29;5.10;;;4.07;;
15285;SDS011;7744;52.172;10.668;2023-06-10T02:42:54;5.05;;;3.83;;
15285;SDS011;7744;52.172;10.668;2023-06-10T02:45:20;6.55;;;4.57;;
15285;SDS011;7744;52.172;10.668;2023-06-10T02:47:46;5.15;;;3.60;;
15285;SDS011;7744;52.172;10.668;2023-06-10T02:50:11;6.13;;;3.70;;
15285;SDS011;7744;52.172;10.668;2023-06-10T02:52:37;4.50;;;4.10;;
15285;SDS011;7744;52.172;10.668;2023-06-10T02:55:03;4.65;;;3.58;;
15285;SDS011;7744;52.172;10.668;2023-06-10T02:57:28;4.68;;;3.85;;
15285;SDS011;7744;52.172;10.668;2023-06-10T02:59:54;5.25;;;3.90;;
15285;SDS011;7744;52.172;10.668;2023-06-10T03:02:20;5.93;;;4.38;;
15285;SDS011;7744;52.172;10.668;2023-06-10T03:04:45;4.38;;;3.55;;
15285;SDS011;7744;52.172;10.668;2023-06-10T03:07:11;4.15;;;3.75;;
15285;SDS011;7744;52.172;10.668;2023-06-10T03:09:37;5.30;;;3.60;;
15285;SDS011;7744;52.172;10.668;2023-06-10T03:12:03;7.50;;;4.10;;
15285;SDS011;7744;52.172;10.668;2023-06-10T03:14:30;4.38;;;3.97;;
15285;SDS011;7744;52.172;10.668;2023-06-10T03:16:55;7.82;;;4.90;;
15285;SDS011;7744;52.172;10.668;2023-06-10T03:19:21;5.82;;;4.28;;
15285;SDS011;7744;52.172;10.668;2023-06-10T03:21:49;5.93;;;4.03;;
15285;SDS011;7744;52.172;10.668;2023-06-10T03:24:23;9.90;;;5.15;;
15285;SDS011;7744;52.172;10.668;2023-06-10T03:26:48;6.97;;;4.65;;
15285;SDS011;7744;52.172;10.668;2023-06-10T03:29:14;6.00;;;4.80;;
15285;SDS011;7744;52.172;10.668;2023-06-10T03:31:40;6.60;;;4.30;;
15285;SDS011;7744;52.172;10.668;2023-06-10T03:34:05;5.18;;;4.22;;
15285;SDS011;7744;52.172;10.668;2023-06-10T03:36:31;6.70;;;4.82;;
15285;SDS011;7744;52.172;10.668;2023-06-10T03:38:56;6.38;;;4.43;;
15285;SDS011;7744;52.172;10.668;2023-06-10T03:41:22;6.07;;;4.57;;
15285;SDS011;7744;52.172;10.668;2023-06-10T03:43:48;7.07;;;4.25;;
15285;SDS011;7744;52.172;10.668;2023-06-10T03:46:13;7.25;;;4.90;;
15285;SDS011;7744;52.172;10.668;2023-06-10T03:48:42;5.70;;;4.50;;
15285;SDS011;7744;52.172;10.668;2023-06-10T03:51:07;7.93;;;4.60;;
15285;SDS011;7744;52.172;10.668;2023-06-10T03:53:33;7.70;;;4.80;;
15285;SDS011;7744;52.172;10.668;2023-06-10T03:55:58;7.10;;;4.88;;
15285;SDS011;7744;52.172;10.668;2023-06-10T03:58:24;6.40;;;4.65;;
15285;SDS011;7744;52.172;10.668;2023-06-10T04:00:50;7.75;;;5.85;;
15285;SDS011;7744;52.172;10.668;2023-06-10T04:03:16;7.65;;;5.30;;
15285;SDS011;7744;52.172;10.668;2023-06-10T04:05:42;7.38;;;5.20;;
15285;SDS011;7744;52.172;10.668;2023-06-10T04:08:08;7.70;;;4.90;;
15285;SDS011;7744;52.172;10.668;2023-06-10T04:10:33;8.57;;;4.78;;
15285;SDS011;7744;52.172;10.668;2023-06-10T04:12:59;5.72;;;4.55;;
15285;SDS011;7744;52.172;10.668;2023-06-10T04:15:25;7.10;;;4.07;;
15285;SDS011;7744;52.172;10.668;2023-06-10T04:17:50;7.10;;;5.20;;
15285;SDS011;7744;52.172;10.668;2023-06-10T04:20:16;5.18;;;4.22;;
15285;SDS011;7744;52.172;10.668;2023-06-10T04:22:42;6.53;;;5.03;;
15285;SDS011;7744;52.172;10.668;2023-06-10T04:25:08;6.85;;;5.00;;
15285;SDS011;7744;52.172;10.668;2023-06-10T04:27:34;6.47;;;4.95;;
15285;SDS011;7744;52.172;10.668;2023-06-10T04:30:00;5.88;;;4.68;;
15285;SDS011;7744;52.172;10.668;2023-06-10T04:32:26;6.85;;;5.38;;
15285;SDS011;7744;52.172;10.668;2023-06-10T04:34:52;9.30;;;5.22;;
15285;SDS011;7744;52.172;10.668;2023-06-10T04:37:17;5.82;;;4.57;;
15285;SDS011;7744;52.172;10.668;2023-06-10T04:39:43;5.65;;;4.85;;
15285;SDS011;7744;52.172;10.668;2023-06-10T04:42:08;6.88;;;5.25;;
15285;SDS011;7744;52.172;10.668;2023-06-10T04:44:34;5.72;;;3.97;;
15285;SDS011;7744;52.172;10.668;2023-06-10T04:47:00;6.32;;;4.40;;
15285;SDS011;7744;52.172;10.668;2023-06-10T04:49:25;8.68;;;5.70;;
15285;SDS011;7744;52.172;10.668;2023-06-10T04:51:51;7.95;;;5.10;;
15285;SDS011;7744;52.172;10.668;2023-06-10T04:54:17;6.63;;;5.22;;
15285;SDS011;7744;52.172;10.668;2023-06-10T04:56:42;7.10;;;5.00;;
15285;SDS011;7744;52.172;10.668;2023-06-10T04:59:08;4.72;;;4.10;;
15285;SDS011;7744;52.172;10.668;2023-06-10T05:01:33;6.00;;;4.50;;
15285;SDS011;7744;52.172;10.668;2023-06-10T05:03:59;5.45;;;3.85;;
15285;SDS011;7744;52.172;10.668;2023-06-10T05:06:25;6.10;;;4.20;;
15285;SDS011;7744;52.172;10.668;2023-06-10T05:08:50;7.20;;;4.45;;
15285;SDS011;7744;52.172;10.668;2023-06-10T05:11:16;4.88;;;4.28;;
15285;SDS011;7744;52.172;10.668;2023-06-10T05:13:42;6.03;;;4.40;;
15285;SDS011;7744;52.172;10.668;2023-06-10T05:16:09;7.28;;;4.30;;
15285;SDS011;7744;52.172;10.668;2023-06-10T05:18:34;5.25;;;3.88;;
15285;SDS011;7744;52.172;10.668;2023-06-10T05:21:00;7.07;;;4.00;;
15285;SDS011;7744;52.172;10.668;2023-06-10T05:23:27;5.28;;;3.83;;
15285;SDS011;7744;52.172;10.668;2023-06-10T05:25:54;5.85;;;4.40;;
15285;SDS011;7744;52.172;10.668;2023-06-10T05:28:19;5.93;;;4.25;;
15285;SDS011;7744;52.172;10.668;2023-06-10T05:30:45;6.47;;;3.75;;
15285;SDS011;7744;52.172;10.668;2023-06-10T05:33:11;4.82;;;4.30;;
15285;SDS011;7744;52.172;10.668;2023-06-10T05:35:36;5.50;;;3.70;;
15285;SDS011;7744;52.172;10.668;2023-06-10T05:38:02;6.63;;;4.28;;
15285;SDS011;7744;52.172;10.668;2023-06-10T05:40:28;8.32;;;3.90;;
15285;SDS011;7744;52.172;10.668;2023-06-10T05:42:53;5.78;;;4.40;;
15285;SDS011;7744;52.172;10.668;2023-06-10T05:45:19;5.28;;;3.97;;
15285;SDS011;7744;52.172;10.668;2023-06-10T05:47:44;6.88;;;4.88;;
15285;SDS011;7744;52.172;10.668;2023-06-10T05:50:10;5.60;;;4.20;;
15285;SDS011;7744;52.172;10.668;2023-06-10T05:52:36;6.53;;;4.70;;
15285;SDS011;7744;52.172;10.668;2023-06-10T05:55:02;4.28;;;3.88;;
15285;SDS011;7744;52.172;10.668;2023-06-10T05:57:28;6.53;;;4.75;;
15285;SDS011;7744;52.172;10.668;2023-06-10T05:59:54;4.53;;;4.10;;
15285;SDS011;7744;52.172;10.668;2023-06-10T06:02:20;6.53;;;3.95;;
15285;SDS011;7744;52.172;10.668;2023-06-10T06:04:45;5.85;;;4.60;;
15285;SDS011;7744;52.172;10.668;2023-06-10T06:07:11;5.25;;;4.50;;
15285;SDS011;7744;52.172;10.668;2023-06-10T06:09:37;7.75;;;4.65;;
15285;SDS011;7744;52.172;10.668;2023-06-10T06:12:02;4.63;;;3.95;;
15285;SDS011;7744;52.172;10.668;2023-06-10T06:14:30;5.32;;;4.53;;
15285;SDS011;7744;52.172;10.668;2023-06-10T06:16:57;5.63;;;4.60;;
15285;SDS011;7744;52.172;10.668;2023-06-10T06:19:23;5.72;;;4.28;;
15285;SDS011;7744;52.172;10.668;2023-06-10T06:21:48;5.97;;;4.88;;
15285;SDS011;7744;52.172;10.668;2023-06-10T06:24:15;6.88;;;4.55;;
15285;SDS011;7744;52.172;10.668;2023-06-10T06:26:41;4.93;;;4.38;;
15285;SDS011;7744;52.172;10.668;2023-06-10T06:29:07;5.88;;;4.55;;
15285;SDS011;7744;52.172;10.668;2023-06-10T06:31:32;5.75;;;4.07;;
15285;SDS011;7744;52.172;10.668;2023-06-10T06:33:58;4.85;;;4.32;;
15285;SDS011;7744;52.172;10.668;2023-06-10T06:36:23;5.07;;;4.38;;
15285;SDS011;7744;52.172;10.668;2023-06-10T06:38:49;5.40;;;4.63;;
15285;SDS011;7744;52.172;10.668;2023-06-10T06:41:15;5.55;;;4.45;;
15285;SDS011;7744;52.172;10.668;2023-06-10T06:43:40;5.60;;;4.57;;
15285;SDS011;7744;52.172;10.668;2023-06-10T06:46:08;5.22;;;4.40;;
15285;SDS011;7744;52.172;10.668;2023-06-10T06:48:33;5.65;;;4.03;;
15285;SDS011;7744;52.172;10.668;2023-06-10T06:50:59;6.05;;;4.50;;
15285;SDS011;7744;52.172;10.668;2023-06-10T06:53:25;7.82;;;5.53;;
15285;SDS011;7744;52.172;10.668;2023-06-10T06:55:50;5.07;;;4.57;;
15285;SDS011;7744;52.172;10.668;2023-06-10T06:58:16;6.18;;;5.13;;
15285;SDS011;7744;52.172;10.668;2023-06-10T07:00:42;5.22;;;4.53;;
15285;SDS011;7744;52.172;10.668;2023-06-10T07:03:07;8.55;;;5.65;;
15285;SDS011;7744;52.172;10.668;2023-06-10T07:05:33;4.97;;;4.10;;
15285;SDS011;7744;52.172;10.668;2023-06-10T07:07:58;5.45;;;4.95;;
15285;SDS011;7744;52.172;10.668;2023-06-10T07:10:24;5.15;;;4.53;;
15285;SDS011;7744;52.172;10.668;2023-06-10T07:12:51;5.78;;;4.63;;
15285;SDS011;7744;52.172;10.668;2023-06-10T07:15:17;5.10;;;4.60;;
15285;SDS011;7744;52.172;10.668;2023-06-10T07:17:43;5.70;;;5.20;;
15285;SDS011;7744;52.172;10.668;2023-06-10T07:20:08;6.07;;;5.38;;
15285;SDS011;7744;52.172;10.668;2023-06-10T07:22:34;5.53;;;5.03;;
15285;SDS011;7744;52.172;10.668;2023-06-10T07:25:00;5.80;;;4.78;;
15285;SDS011;7744;52.172;10.668;2023-06-10T07:27:26;6.15;;;4.90;;
15285;SDS011;7744;52.172;10.668;2023-06-10T07:29:51;6.50;;;5.00;;
15285;SDS011;7744;52.172;10.668;2023-06-10T07:32:17;4.97;;;4.57;;
15285;SDS011;7744;52.172;10.668;2023-06-10T07:34:45;6.10;;;5.43;;
15285;SDS011;7744;52.172;10.668;2023-06-10T07:37:10;5.68;;;4.88;;
15285;SDS011;7744;52.172;10.668;2023-06-10T07:39:36;7.50;;;5.10;;
15285;SDS011;7744;52.172;10.668;2023-06-10T07:42:02;5.93;;;5.30;;
15285;SDS011;7744;52.172;10.668;2023-06-10T07:44:27;7.72;;;5.80;;
15285;SDS011;7744;52.172;10.668;2023-06-10T07:46:53;5.50;;;4.93;;
15285;SDS011;7744;52.172;10.668;2023-06-10T07:49:18;6.60;;;5.47;;
15285;SDS011;7744;52.172;10.668;2023-06-10T07:51:44;7.43;;;5.63;;
15285;SDS011;7744;52.172;10.668;2023-06-10T07:54:10;6.55;;;5.35;;
15285;SDS011;7744;52.172;10.668;2023-06-10T07:56:37;7.03;;;5.38;;
15285;SDS011;7744;52.172;10.668;2023-06-10T07:59:03;6.07;;;5.43;;
15285;SDS011;7744;52.172;10.668;2023-06-10T08:01:28;7.95;;;5.82;;
15285;SDS011;7744;52.172;10.668;2023-06-10T08:03:55;7.32;;;5.72;;
15285;SDS011;7744;52.172;10.668;2023-06-10T08:06:20;7.47;;;5.65;;
15285;SDS011;7744;52.172;10.668;2023-06-10T08:08:46;8.05;;;6.13;;
15285;SDS011;7744;52.172;10.668;2023-06-10T08:11:12;7.00;;;5.90;;
15285;SDS011;7744;52.172;10.668;2023-06-10T08:13:38;8.02;;;6.00;;
15285;SDS011;7744;52.172;10.668;2023-06-10T08:16:04;6.88;;;5.60;;
15285;SDS011;7744;52.172;10.668;2023-06-10T08:18:30;7.38;;;5.50;;
15285;SDS011;7744;52.172;10.668;2023-06-10T08:20:56;5.65;;;5.15;;
15285;SDS011;7744;52.172;10.668;2023-06-10T08:23:22;6.97;;;5.20;;
15285;SDS011;7744;52.172;10.668;2023-06-10T08:25:47;8.25;;;5.63;;
15285;SDS011;7744;52.172;10.668;2023-06-10T08:28:13;6.80;;;5.30;;
15285;SDS011;7744;52.172;10.668;2023-06-10T08:30:38;7.38;;;5.75;;
15285;SDS011;7744;52.172;10.668;2023-06-10T08:33:04;7.90;;;5.47;;
15285;SDS011;7744;52.172;10.668;2023-06-10T08:35:30;6.18;;;5.57;;
15285;SDS011;7744;52.172;10.668;2023-06-10T08:37:55;6.82;;;5.53;;
15285;SDS011;7744;52.172;10.668;2023-06-10T08:40:21;7.75;;;5.97;;
15285;SDS011;7744;52.172;10.668;2023-06-10T08:42:57;8.20;;;5.80;;
15285;SDS011;7744;52.172;10.668;2023-06-10T08:45:31;7.68;;;6.10;;
15285;SDS011;7744;52.172;10.668;2023-06-10T08:48:00;8.27;;;6.25;;
15285;SDS011;7744;52.172;10.668;2023-06-10T08:50:35;10.02;;;6.82;;
15285;SDS011;7744;52.172;10.668;2023-06-10T08:53:02;8.55;;;6.07;;
15285;SDS011;7744;52.172;10.668;2023-06-10T08:55:31;6.80;;;5.72;;
15285;SDS011;7744;52.172;10.668;2023-06-10T08:57:59;6.55;;;5.85;;
15285;SDS011;7744;52.172;10.668;2023-06-10T09:00:25;6.38;;;5.78;;
15285;SDS011;7744;52.172;10.668;2023-06-10T09:02:51;7.45;;;6.07;;
15285;SDS011;7744;52.172;10.668;2023-06-10T09:05:17;7.97;;;6.35;;
15285;SDS011;7744;52.172;10.668;2023-06-10T09:07:43;6.20;;;5.60;;
15285;SDS011;7744;52.172;10.668;2023-06-10T09:10:10;6.32;;;5.60;;
15285;SDS011;7744;52.172;10.668;2023-06-10T09:12:36;7.75;;;6.43;;
15285;SDS011;7744;52.172;10.668;2023-06-10T09:15:06;8.35;;;6.30;;
15285;SDS011;7744;52.172;10.668;2023-06-10T09:17:32;8.45;;;6.95;;
15285;SDS011;7744;52.172;10.668;2023-06-10T09:19:59;9.00;;;6.90;;
15285;SDS011;7744;52.172;10.668;2023-06-10T09:22:27;8.05;;;6.53;;
15285;SDS011;7744;52.172;10.668;2023-06-10T09:25:03;8.57;;;6.65;;
15285;SDS011;7744;52.172;10.668;2023-06-10T09:27:30;7.07;;;6.38;;
15285;SDS011;7744;52.172;10.668;2023-06-10T09:29:57;9.38;;;6.60;;
15285;SDS011;7744;52.172;10.668;2023-06-10T09:32:23;9.15;;;7.63;;
15285;SDS011;7744;52.172;10.668;2023-06-10T09:34:49;8.02;;;7.07;;
15285;SDS011;7744;52.172;10.668;2023-06-10T09:37:22;9.35;;;7.38;;
15285;SDS011;7744;52.172;10.668;2023-06-10T09:40:02;8.90;;;7.15;;
15285;SDS011;7744;52.172;10.668;2023-06-10T09:42:32;8.95;;;6.55;;
15285;SDS011;7744;52.172;10.668;2023-06-10T09:44:59;8.57;;;7.00;;
15285;SDS011;7744;52.172;10.668;2023-06-10T09:47:25;9.88;;;7.45;;
15285;SDS011;7744;52.172;10.668;2023-06-10T09:49:50;10.52;;;7.60;;
15285;SDS011;7744;52.172;10.668;2023-06-10T09:52:22;8.70;;;7.25;;
15285;SDS011;7744;52.172;10.668;2023-06-10T09:54:49;8.55;;;6.97;;
15285;SDS011;7744;52.172;10.668;2023-06-10T09:57:16;8.27;;;7.20;;
15285;SDS011;7744;52.172;10.668;2023-06-10T09:59:42;8.30;;;7.30;;
15285;SDS011;7744;52.172;10.668;2023-06-10T10:02:19;7.93;;;6.70;;
15285;SDS011;7744;52.172;10.668;2023-06-10T10:04:45;9.23;;;7.38;;
15285;SDS011;7744;52.172;10.668;2023-06-10T10:07:11;7.82;;;6.95;;
15285;SDS011;7744;52.172;10.668;2023-06-10T10:09:37;8.65;;;6.60;;
15285;SDS011;7744;52.172;10.668;2023-06-10T10:12:09;8.98;;;6.57;;
15285;SDS011;7744;52.172;10.668;2023-06-10T10:14:42;7.63;;;6.45;;
15285;SDS011;7744;52.172;10.668;2023-06-10T10:17:11;7.40;;;6.70;;
15285;SDS011;7744;52.172;10.668;2023-06-10T10:19:41;7.28;;;6.55;;
15285;SDS011;7744;52.172;10.668;2023-06-10T10:22:18;7.97;;;6.88;;
15285;SDS011;7744;52.172;10.668;2023-06-10T10:24:52;7.57;;;6.60;;
15285;SDS011;7744;52.172;10.668;2023-06-10T10:27:21;7.68;;;6.63;;
15285;SDS011;7744;52.172;10.668;2023-06-10T10:29:52;7.60;;;6.53;;
15285;SDS011;7744;52.172;10.668;2023-06-10T10:32:25;7.25;;;6.55;;
15285;SDS011;7744;52.172;10.668;2023-06-10T10:37:25;7.97;;;6.40;;
15285;SDS011;7744;52.172;10.668;2023-06-10T10:39:51;8.15;;;6.80;;
15285;SDS011;7744;52.172;10.668;2023-06-10T10:42:17;7.40;;;6.70;;
15285;SDS011;7744;52.172;10.668;2023-06-10T10:44:44;8.85;;;6.32;;
15285;SDS011;7744;52.172;10.668;2023-06-10T10:47:09;9.43;;;6.28;;
15285;SDS011;7744;52.172;10.668;2023-06-10T10:49:37;6.88;;;6.25;;
15285;SDS011;7744;52.172;10.668;2023-06-10T10:52:03;7.47;;;6.78;;
15285;SDS011;7744;52.172;10.668;2023-06-10T10:54:35;7.55;;;6.43;;
15285;SDS011;7744;52.172;10.668;2023-06-10T11:05:05;7.00;;;6.25;;
15285;SDS011;7744;52.172;10.668;2023-06-10T11:07:32;8.40;;;6.00;;
15285;SDS011;7744;52.172;10.668;2023-06-10T11:10:13;7.70;;;6.53;;
15285;SDS011;7744;52.172;10.668;2023-06-10T11:12:57;6.97;;;6.25;;
15285;SDS011;7744;52.172;10.668;2023-06-10T11:15:28;7.57;;;6.75;;
15285;SDS011;7744;52.172;10.668;2023-06-10T11:23:10;7.45;;;6.72;;
15285;SDS011;7744;52.172;10.668;2023-06-10T11:25:49;6.55;;;5.97;;
15285;SDS011;7744;52.172;10.668;2023-06-10T11:28:18;7.25;;;5.72;;
15285;SDS011;7744;52.172;10.668;2023-06-10T11:30:44;7.22;;;6.53;;
15285;SDS011;7744;52.172;10.668;2023-06-10T11:33:14;7.22;;;6.50;;
15285;SDS011;7744;52.172;10.668;2023-06-10T11:35:42;6.82;;;6.18;;
15285;SDS011;7744;52.172;10.668;2023-06-10T11:38:08;6.85;;;6.22;;
15285;SDS011;7744;52.172;10.668;2023-06-10T11:40:34;9.05;;;6.10;;
15285;SDS011;7744;52.172;10.668;2023-06-10T11:43:03;7.45;;;6.10;;
15285;SDS011;7744;52.172;10.668;2023-06-10T11:45:29;6.85;;;5.80;;
15285;SDS011;7744;52.172;10.668;2023-06-10T11:47:55;6.75;;;6.05;;
15285;SDS011;7744;52.172;10.668;2023-06-10T11:50:31;6.15;;;5.55;;
15285;SDS011;7744;52.172;10.668;2023-06-10T11:52:57;6.55;;;5.65;;
15285;SDS011;7744;52.172;10.668;2023-06-10T11:55:24;8.68;;;6.10;;
15285;SDS011;7744;52.172;10.668;2023-06-10T11:57:51;7.85;;;5.97;;
15285;SDS011;7744;52.172;10.668;2023-06-10T12:00:23;7.00;;;5.65;;
15285;SDS011;7744;52.172;10.668;2023-06-10T12:02:56;7.80;;;6.40;;
15285;SDS011;7744;52.172;10.668;2023-06-10T12:05:22;7.00;;;5.90;;
15285;SDS011;7744;52.172;10.668;2023-06-10T12:07:48;6.63;;;6.05;;
15285;SDS011;7744;52.172;10.668;2023-06-10T12:10:14;5.95;;;5.43;;
15285;SDS011;7744;52.172;10.668;2023-06-10T12:12:41;6.53;;;5.93;;
15285;SDS011;7744;52.172;10.668;2023-06-10T12:15:06;6.47;;;5.97;;
15285;SDS011;7744;52.172;10.668;2023-06-10T12:20:00;6.70;;;5.97;;
15285;SDS011;7744;52.172;10.668;2023-06-10T12:22:26;6.68;;;6.10;;
15285;SDS011;7744;52.172;10.668;2023-06-10T12:25:02;6.53;;;5.72;;
15285;SDS011;7744;52.172;10.668;2023-06-10T12:27:29;5.80;;;5.10;;
15285;SDS011;7744;52.172;10.668;2023-06-10T12:29:56;6.55;;;5.18;;
15285;SDS011;7744;52.172;10.668;2023-06-10T12:32:37;8.25;;;5.65;;
15285;SDS011;7744;52.172;10.668;2023-06-10T12:35:04;5.80;;;5.20;;
15285;SDS011;7744;52.172;10.668;2023-06-10T12:37:30;4.85;;;4.45;;
15285;SDS011;7744;52.172;10.668;2023-06-10T12:39:59;5.38;;;4.85;;
15285;SDS011;7744;52.172;10.668;2023-06-10T12:42:26;5.53;;;5.03;;
15285;SDS011;7744;52.172;10.668;2023-06-10T12:44:55;7.35;;;5.28;;
15285;SDS011;7744;52.172;10.668;2023-06-10T12:47:28;5.47;;;4.82;;
15285;SDS011;7744;52.172;10.668;2023-06-10T12:49:57;6.63;;;5.40;;
15285;SDS011;7744;52.172;10.668;2023-06-10T12:52:24;6.18;;;5.38;;
15285;SDS011;7744;52.172;10.668;2023-06-10T12:54:50;6.18;;;5.57;;
15285;SDS011;7744;52.172;10.668;2023-06-10T12:57:16;6.10;;;5.13;;
15285;SDS011;7744;52.172;10.668;2023-06-10T12:59:42;5.47;;;4.90;;
15285;SDS011;7744;52.172;10.668;2023-06-10T13:02:15;5.82;;;4.72;;
15285;SDS011;7744;52.172;10.668;2023-06-10T13:04:41;5.10;;;4.70;;
15285;SDS011;7744;52.172;10.668;2023-06-10T13:07:08;8.65;;;5.40;;
15285;SDS011;7744;52.172;10.668;2023-06-10T13:09:35;5.22;;;4.72;;
15285;SDS011;7744;52.172;10.668;2023-06-10T13:12:01;5.45;;;4.95;;
15285;SDS011;7744;52.172;10.668;2023-06-10T13:14:27;5.05;;;4.65;;
15285;SDS011;7744;52.172;10.668;2023-06-10T13:16:54;5.75;;;5.25;;
15285;SDS011;7744;52.172;10.668;2023-06-10T13:19:20;5.32;;;4.82;;
15285;SDS011;7744;52.172;10.668;2023-06-10T13:21:47;6.10;;;5.50;;
15285;SDS011;7744;52.172;10.668;2023-06-10T13:24:12;6.40;;;5.05;;
15285;SDS011;7744;52.172;10.668;2023-06-10T13:26:38;5.53;;;4.93;;
15285;SDS011;7744;52.172;10.668;2023-06-10T13:29:04;5.60;;;4.97;;
15285;SDS011;7744;52.172;10.668;2023-06-10T13:31:30;5.20;;;4.63;;
15285;SDS011;7744;52.172;10.668;2023-06-10T13:33:57;4.97;;;4.57;;
15285;SDS011;7744;52.172;10.668;2023-06-10T13:36:23;5.28;;;4.88;;
15285;SDS011;7744;52.172;10.668;2023-06-10T13:38:49;5.05;;;4.65;;
15285;SDS011;7744;52.172;10.668;2023-06-10T13:41:15;5.70;;;4.75;;
15285;SDS011;7744;52.172;10.668;2023-06-10T13:43:40;5.55;;;4.88;;
15285;SDS011;7744;52.172;10.668;2023-06-10T13:46:06;4.72;;;4.43;;
15285;SDS011;7744;52.172;10.668;2023-06-10T13:48:32;5.78;;;5.18;;
15285;SDS011;7744;52.172;10.668;2023-06-10T13:50:58;5.40;;;5.00;;
15285;SDS011;7744;52.172;10.668;2023-06-10T13:53:25;5.20;;;4.70;;
15285;SDS011;7744;52.172;10.668;2023-06-10T13:55:50;5.50;;;4.90;;
15285;SDS011;7744;52.172;10.668;2023-06-10T13:58:16;5.28;;;4.78;;
15285;SDS011;7744;52.172;10.668;2023-06-10T14:00:42;5.05;;;4.57;;
15285;SDS011;7744;52.172;10.668;2023-06-10T14:03:07;5.00;;;4.50;;
15285;SDS011;7744;52.172;10.668;2023-06-10T14:05:33;5.25;;;4.53;;
15285;SDS011;7744;52.172;10.668;2023-06-10T14:07:59;5.22;;;4.72;;
15285;SDS011;7744;52.172;10.668;2023-06-10T14:10:25;5.00;;;4.50;;
15285;SDS011;7744;52.172;10.668;2023-06-10T14:12:51;5.13;;;4.63;;
15285;SDS011;7744;52.172;10.668;2023-06-10T14:15:16;5.10;;;4.70;;
15285;SDS011;7744;52.172;10.668;2023-06-10T14:17:42;5.18;;;4.45;;
15285;SDS011;7744;52.172;10.668;2023-06-10T14:20:08;6.57;;;4.53;;
15285;SDS011;7744;52.172;10.668;2023-06-10T14:22:34;8.88;;;5.25;;
15285;SDS011;7744;52.172;10.668;2023-06-10T14:24:59;5.30;;;4.80;;
15285;SDS011;7744;52.172;10.668;2023-06-10T14:27:25;6.03;;;4.32;;
15285;SDS011;7744;52.172;10.668;2023-06-10T14:29:51;5.00;;;4.47;;
15285;SDS011;7744;52.172;10.668;2023-06-10T14:32:16;4.97;;;4.57;;
15285;SDS011;7744;52.172;10.668;2023-06-10T14:34:42;4.70;;;4.38;;
15285;SDS011;7744;52.172;10.668;2023-06-10T14:37:09;5.18;;;4.68;;
15285;SDS011;7744;52.172;10.668;2023-06-10T14:39:35;5.40;;;4.95;;
15285;SDS011;7744;52.172;10.668;2023-06-10T14:42:01;5.18;;;4.70;;
15285;SDS011;7744;52.172;10.668;2023-06-10T14:44:27;5.15;;;4.65;;
15285;SDS011;7744;52.172;10.668;2023-06-10T14:46:52;5.45;;;4.70;;
15285;SDS011;7744;52.172;10.668;2023-06-10T14:49:18;5.72;;;5.22;;
15285;SDS011;7744;52.172;10.668;2023-06-10T14:51:43;4.75;;;4.35;;
15285;SDS011;7744;52.172;10.668;2023-06-10T14:54:09;4.75;;;4.35;;
15285;SDS011;7744;52.172;10.668;2023-06-10T14:56:35;6.28;;;4.70;;
15285;SDS011;7744;52.172;10.668;2023-06-10T14:59:01;4.88;;;3.97;;
15285;SDS011;7744;52.172;10.668;2023-06-10T15:01:26;5.05;;;4.53;;
15285;SDS011;7744;52.172;10.668;2023-06-10T15:03:52;5.05;;;4.65;;
15285;SDS011;7744;52.172;10.668;2023-06-10T15:06:17;4.80;;;4.40;;